Time;durP1;ratioP1;P1;durP2;ratioP2;P2;SDS_P1;SDS_P2;PMS_P1;PMS_P2;Temp;Humidity;BMP_temperature;BMP_pressure;BME280_temperature;BME280_humidity;BME280_pressure;Samples;Min_cycle;Max_cycle;Signal;HPM_P1;HPM_P2
2022/08/14 00:01:59;;;;;;;5.83;5.33;;;27.40;51.70;;;30.12;38.90;101387.84;5052651;28;20221;-62
2022/08/14 00:04:30;;;;;;;5.80;5.30;;;27.40;51.70;;;30.07;39.00;101377.84;5053248;28;20202;-62
2022/08/14 00:07:09;;;;;;;6.23;5.73;;;27.40;51.80;;;30.05;39.23;101381.94;5053129;28;20209;-62
2022/08/14 00:09:37;;;;;;;6.07;5.30;;;27.40;52.00;;;30.02;39.47;101374.41;5053082;28;20189;-62
2022/08/14 00:12:25;;;;;;;6.20;5.63;;;27.40;52.80;;;29.99;39.49;101383.13;5065510;28;20752;-61
2022/08/14 00:15:09;;;;;;;5.83;5.33;;;27.30;52.20;;;29.96;39.23;101375.53;5068532;28;20560;-61
2022/08/14 00:17:37;;;;;;;7.10;6.40;;;27.30;52.30;;;29.95;39.32;101374.72;5068676;28;20223;-61
2022/08/14 00:20:25;;;;;;;6.83;6.23;;;27.30;52.50;;;29.92;39.66;101377.22;5052025;28;20268;-62
2022/08/14 00:23:04;;;;;;;6.60;6.00;;;27.20;53.20;;;29.93;39.48;101376.13;5057431;28;20262;-62
2022/08/14 00:25:45;;;;;;;8.43;6.20;;;27.20;52.50;;;29.91;39.51;101375.59;5072788;28;20219;-62
2022/08/14 00:28:32;;;;;;;7.67;5.93;;;27.20;52.70;;;29.87;39.97;101372.66;5073032;28;20192;-62
2022/08/14 00:31:03;;;;;;;6.07;5.57;;;27.20;52.80;;;29.88;39.49;101381.63;5072421;28;20670;-62
2022/08/14 00:33:31;;;;;;;5.70;5.20;;;27.10;52.60;;;29.86;39.88;101378.34;5072705;28;20189;-62
2022/08/14 00:36:23;;;;;;;5.37;4.87;;;27.10;53.40;;;29.86;39.98;101378.34;5055591;28;20198;-61
2022/08/14 00:39:14;;;;;;;6.07;5.43;;;27.10;52.80;;;29.86;39.67;101383.78;5052517;28;20201;-62
2022/08/14 00:41:46;;;;;;;6.30;5.37;;;27.10;52.70;;;29.85;39.64;101368.59;5052454;28;20616;-63
2022/08/14 00:44:14;;;;;;;5.60;5.10;;;27.10;52.60;;;29.86;39.63;101378.34;5053557;28;20201;-61
2022/08/14 00:46:58;;;;;;;5.73;5.30;;;27.10;52.70;;;29.85;39.70;101371.31;5052670;28;20202;-62
2022/08/14 00:49:27;;;;;;;6.63;5.50;;;27.10;52.90;;;29.85;39.89;101374.84;5052583;28;20243;-63
2022/08/14 00:51:59;;;;;;;7.20;5.83;;;27.10;53.00;;;29.84;39.73;101370.50;5052455;28;20217;-64
2022/08/14 00:54:26;;;;;;;7.27;5.13;;;27.10;53.10;;;29.83;40.00;101363.47;5052954;28;20252;-63
2022/08/14 00:56:55;;;;;;;6.20;5.23;;;27.10;52.90;;;29.81;39.92;101360.22;5052269;28;20197;-62
2022/08/14 00:59:24;;;;;;;8.03;5.40;;;27.10;53.00;;;29.82;39.88;101361.03;5052342;28;20609;-63
2022/08/14 01:01:56;;;;;;;6.17;4.77;;;27.10;53.10;;;29.79;39.91;101350.72;5051641;28;20297;-62
2022/08/14 01:04:27;;;;;;;7.47;5.93;;;27.00;53.10;;;29.79;39.90;101350.72;5054271;28;20284;-62
2022/08/14 01:07:19;;;;;;;5.37;4.87;;;27.00;53.20;;;29.76;40.05;101345.88;5072318;28;20212;-62
2022/08/14 01:09:50;;;;;;;5.77;5.27;;;27.00;53.20;;;29.75;40.06;101349.66;5072336;28;20541;-62
2022/08/14 01:12:19;;;;;;;5.23;4.67;;;27.00;53.20;;;29.75;40.20;101345.03;5071552;28;20213;-62
2022/08/14 01:14:57;;;;;;;6.87;6.17;;;27.00;53.50;;;29.73;40.15;101346.44;5071189;28;20278;-61
2022/08/14 01:21:02;;;;;;;6.20;5.60;;;27.00;53.50;;;29.73;40.24;101346.44;5070795;28;20202;-63
2022/08/14 01:23:12;;;;;;;7.47;4.97;;;26.90;53.60;;;29.67;40.70;101347.59;5058169;28;20243;-63
2022/08/14 01:25:49;;;;;;;5.97;5.33;;;26.90;53.60;;;29.65;40.51;101347.84;5071952;28;20190;-63
2022/08/14 01:28:20;;;;;;;6.37;5.83;;;26.90;53.80;;;29.64;40.50;101342.72;5071955;28;20182;-63
2022/08/14 01:31:11;;;;;;;5.83;5.27;;;26.90;53.70;;;29.60;40.51;101347.13;5071542;28;20189;-62
2022/08/14 01:33:45;;;;;;;5.70;5.20;;;26.80;53.80;;;29.56;40.66;101341.44;5072291;28;20193;-62
2022/08/14 01:36:36;;;;;;;6.37;5.33;;;26.80;53.80;;;29.52;40.72;101334.97;5048953;28;20186;-61
2022/08/14 01:39:12;;;;;;;5.30;4.90;;;26.80;54.00;;;29.50;40.53;101329.81;5034795;28;20285;-63
2022/08/14 01:41:42;;;;;;;6.03;4.93;;;26.80;53.80;;;29.49;40.81;101325.50;5035443;28;20218;-63
2022/08/14 01:44:14;;;;;;;6.50;5.70;;;26.80;54.10;;;29.47;40.79;101327.69;5035765;28;20659;-62
2022/08/14 01:47:11;;;;;;;5.50;5.10;;;26.80;54.10;;;29.42;40.77;101322.31;5053374;28;20209;-62
2022/08/14 01:49:49;;;;;;;5.27;4.77;;;26.70;54.10;;;29.38;41.07;101321.22;5069944;28;20186;-62
2022/08/14 01:52:31;;;;;;;5.40;4.90;;;26.70;54.10;;;29.33;41.16;101307.72;5055577;28;20214;-63
2022/08/14 01:55:24;;;;;;;5.67;5.17;;;26.70;54.50;;;29.30;40.91;101311.00;5055797;28;20335;-62
2022/08/14 01:57:54;;;;;;;5.73;5.23;;;26.70;54.70;;;29.28;41.04;101315.09;5055685;28;20255;-63
2022/08/14 02:00:42;;;;;;;6.37;5.63;;;26.60;54.70;;;29.22;41.40;101308.91;5054725;28;20190;-62
2022/08/14 02:03:15;;;;;;;12.80;8.83;;;26.60;54.70;;;29.19;41.57;101309.47;5055320;28;20689;-63
2022/08/14 02:05:42;;;;;;;7.60;5.90;;;26.60;54.90;;;29.13;41.59;101307.88;5055414;28;20202;-62
2022/08/14 02:08:10;;;;;;;6.33;5.60;;;26.50;55.00;;;29.09;41.69;101298.69;5055258;28;20200;-62
2022/08/14 02:10:44;;;;;;;6.27;5.70;;;26.40;55.10;;;29.06;41.86;101295.72;5055346;28;20190;-62
2022/08/14 02:13:14;;;;;;;6.50;5.40;;;26.40;55.40;;;29.01;41.62;101295.75;5055128;28;20260;-63
2022/08/14 02:15:43;;;;;;;6.03;5.60;;;26.40;55.40;;;28.95;42.19;101292.28;5055255;28;20288;-62
2022/08/14 02:18:10;;;;;;;5.80;5.30;;;26.30;55.70;;;28.92;42.27;101297.47;5055375;28;20186;-62
2022/08/14 02:20:41;;;;;;;6.57;5.97;;;26.30;55.90;;;28.86;42.20;101288.53;5055055;28;20839;-62
2022/08/14 02:23:09;;;;;;;7.73;5.77;;;26.20;55.90;;;28.82;42.57;101292.91;5054845;28;20256;-63
2022/08/14 02:25:37;;;;;;;6.27;5.67;;;26.20;56.00;;;28.78;42.63;101286.44;5054747;28;20193;-63
2022/08/14 02:28:07;;;;;;;8.23;5.27;;;26.10;56.30;;;28.75;42.66;101284.28;5054962;28;20214;-62
2022/08/14 02:30:54;;;;;;;7.57;5.63;;;26.10;56.50;;;28.71;42.88;101280.53;5059917;28;20201;-62
2022/08/14 02:33:22;;;;;;;6.37;5.70;;;26.00;56.60;;;28.70;42.89;101289.75;5074911;28;20209;-62
2022/08/14 02:35:51;;;;;;;6.10;5.60;;;26.00;56.90;;;28.69;42.84;101290.84;5075283;28;20272;-62
2022/08/14 02:38:39;;;;;;;6.53;5.63;;;26.00;56.90;;;28.66;43.06;101284.09;5075234;28;20625;-61
2022/08/14 02:41:12;;;;;;;6.07;5.37;;;25.90;57.00;;;28.64;43.01;101289.00;5074971;28;20200;-62
2022/08/14 02:43:42;;;;;;;8.33;5.60;;;25.90;57.10;;;28.64;42.71;101285.47;5075039;28;20564;-61
2022/08/14 02:46:16;;;;;;;7.93;5.53;;;25.90;57.20;;;28.64;42.48;101280.03;5062875;28;20680;-62
2022/08/14 02:48:53;;;;;;;5.77;4.90;;;25.90;57.30;;;28.63;43.19;101278.41;5054774;28;20189;-62
2022/08/14 02:51:33;;;;;;;6.63;5.60;;;25.90;57.30;;;28.64;43.12;101277.34;5054535;28;20206;-63
2022/08/14 02:54:06;;;;;;;5.90;5.40;;;25.80;57.40;;;28.61;43.04;101269.75;5055046;28;20221;-62
2022/08/14 02:56:37;;;;;;;6.40;5.70;;;25.80;57.30;;;28.61;43.17;101272.47;5054830;28;20193;-62
2022/08/14 02:59:30;;;;;;;6.20;5.70;;;25.80;57.30;;;28.57;42.99;101268.69;5054577;28;20194;-62
2022/08/14 03:02:01;;;;;;;7.90;5.67;;;25.80;57.20;;;28.56;43.09;101273.28;5054209;28;20209;-62
2022/08/14 03:04:29;;;;;;;6.83;6.13;;;25.80;57.30;;;28.55;43.00;101270.88;5054473;28;20353;-63
2022/08/14 03:06:57;;;;;;;5.57;5.13;;;25.80;57.30;;;28.53;43.20;101270.31;5054972;28;20210;-63
2022/08/14 03:09:35;;;;;;;9.33;5.43;;;25.80;57.50;;;28.52;43.12;101266.00;5055557;28;20268;-63
2022/08/14 03:12:23;;;;;;;6.53;5.93;;;25.80;57.50;;;28.49;43.15;101261.13;5054752;28;20213;-62
2022/08/14 03:15:12;;;;;;;6.57;5.97;;;25.70;58.10;;;28.50;43.21;101254.63;5054254;28;20667;-62
2022/08/14 03:17:42;;;;;;;7.40;5.70;;;25.80;57.60;;;28.49;43.19;101255.72;5054505;28;20174;-62
2022/08/14 03:20:26;;;;;;;6.20;5.70;;;25.70;57.40;;;28.49;43.03;101239.44;5053785;28;20678;-61
2022/08/14 03:22:55;;;;;;;6.30;5.47;;;25.70;57.50;;;28.49;43.14;101245.69;5053671;28;20210;-63
2022/08/14 03:25:23;;;;;;;6.30;5.77;;;25.70;57.60;;;28.51;43.43;101240.78;5054029;28;20636;-63
2022/08/14 03:27:50;;;;;;;6.40;5.83;;;25.70;57.50;;;28.51;43.26;101238.09;5054087;28;20569;-64
2022/08/14 03:30:29;;;;;;;6.03;5.43;;;25.70;57.60;;;28.49;43.13;101239.44;5053596;28;20190;-60
2022/08/14 03:33:10;;;;;;;6.70;5.90;;;25.70;57.50;;;28.48;43.31;101232.44;5069527;28;20222;-62
2022/08/14 03:35:41;;;;;;;7.30;5.53;;;25.70;57.60;;;28.46;43.51;101229.16;5053801;28;20469;-63
2022/08/14 03:38:29;;;;;;;6.30;5.80;;;25.70;57.60;;;28.42;43.38;101226.22;5053781;28;20186;-62
2022/08/14 03:41:20;;;;;;;5.97;5.57;;;25.70;57.70;;;28.41;43.29;101221.09;5053371;28;20186;-62
2022/08/14 03:43:56;;;;;;;6.27;5.67;;;25.60;57.60;;;28.40;43.01;101216.75;5053794;28;20209;-62
2022/08/14 03:46:32;;;;;;;6.13;5.27;;;25.60;57.80;;;28.38;43.39;101221.66;5053759;28;20194;-62
2022/08/14 03:49:22;;;;;;;6.30;5.80;;;25.60;57.90;;;28.37;43.68;101214.59;5053887;28;20194;-63
2022/08/14 03:51:56;;;;;;;6.87;6.27;;;25.60;57.90;;;28.36;43.62;101213.00;5053643;28;20209;-62
2022/08/14 03:54:24;;;;;;;5.70;5.20;;;25.60;58.00;;;28.34;43.08;101213.25;5053543;28;20197;-61
2022/08/14 03:56:53;;;;;;;6.27;5.77;;;25.60;57.90;;;28.33;43.02;101218.97;5052874;28;20197;-63
2022/08/14 03:59:21;;;;;;;5.63;5.23;;;25.60;57.90;;;28.31;43.46;101207.63;5053442;28;20213;-62
2022/08/14 04:01:51;;;;;;;6.20;5.63;;;25.50;58.10;;;28.29;43.56;101207.09;5053341;28;20206;-61
2022/08/14 04:04:28;;;;;;;6.43;5.83;;;25.50;58.10;;;28.26;43.65;101207.63;5053585;28;20234;-63
2022/08/14 04:06:58;;;;;;;7.57;6.13;;;25.50;58.10;;;28.24;43.83;101207.13;5053459;28;20218;-63
2022/08/14 04:09:28;;;;;;;6.27;5.77;;;25.50;58.20;;;28.20;43.65;101198.72;5053481;28;20635;-62
2022/08/14 04:11:56;;;;;;;5.67;5.17;;;25.40;58.20;;;28.19;43.86;101197.91;5053447;28;20217;-65
2022/08/14 04:14:27;;;;;;;5.87;5.37;;;25.40;58.10;;;28.16;43.84;101193.06;5053615;28;20589;-63
2022/08/14 04:16:57;;;;;;;6.50;6.00;;;25.40;58.20;;;28.14;43.85;101195.25;5053472;28;20224;-62
2022/08/14 04:19:24;;;;;;;6.63;5.93;;;25.40;58.40;;;28.12;43.75;101196.63;5053352;28;20205;-63
2022/08/14 04:21:59;;;;;;;6.63;5.47;;;25.40;58.40;;;28.11;43.81;101195.00;5053193;28;20209;-62
2022/08/14 04:24:30;;;;;;;5.90;5.40;;;25.40;58.40;;;28.10;43.84;101199.59;5056019;28;20237;-62
2022/08/14 04:27:07;;;;;;;6.67;5.43;;;25.40;58.50;;;28.10;43.91;101204.19;5053207;28;20288;-62
2022/08/14 04:29:37;;;;;;;6.23;5.53;;;25.40;58.50;;;28.10;43.93;101194.19;5053250;28;20273;-62
2022/08/14 04:32:08;;;;;;;6.03;5.53;;;25.40;58.50;;;28.09;43.78;101192.56;5052897;28;20235;-63
2022/08/14 04:34:55;;;;;;;8.53;6.27;;;25.40;58.30;;;28.10;43.70;101185.25;5053465;28;20650;-62
2022/08/14 04:45:47;;;;;;;8.60;6.07;;;25.40;58.40;;;28.07;43.83;101181.22;5053024;28;20189;-62
2022/08/14 04:48:19;;;;;;;6.20;5.73;;;25.40;58.30;;;28.07;43.86;101178.53;5052871;28;20209;-62
2022/08/14 04:51:11;;;;;;;6.30;5.73;;;25.40;58.50;;;28.07;43.76;101188.53;5052728;28;20266;-62
2022/08/14 04:53:42;;;;;;;6.80;6.20;;;25.40;58.40;;;28.08;43.92;101176.59;5053045;28;20662;-63
2022/08/14 04:56:12;;;;;;;6.87;6.17;;;25.40;58.50;;;28.09;43.74;101170.91;5053097;28;20236;-62
2022/08/14 04:59:05;;;;;;;6.73;6.17;;;25.40;58.60;;;28.10;43.83;101175.22;5053117;28;20200;-63
2022/08/14 05:01:40;;;;;;;7.50;5.77;;;25.40;58.50;;;28.11;43.60;101174.16;5052753;28;20210;-62
2022/08/14 05:04:17;;;;;;;7.17;6.27;;;25.40;58.50;;;28.13;43.64;101179.28;5053245;28;20174;-62
2022/08/14 05:06:48;;;;;;;7.70;7.00;;;25.40;58.60;;;28.16;43.84;101176.00;5072708;28;20192;-62
2022/08/14 05:09:21;;;;;;;8.93;6.10;;;25.40;58.70;;;28.21;43.91;101167.03;5058510;28;20570;-62
2022/08/14 05:11:49;;;;;;;6.57;6.07;;;25.40;58.70;;;28.25;44.01;101163.50;5056287;28;20213;-62
2022/08/14 05:14:21;;;;;;;6.63;6.13;;;25.40;59.30;;;28.30;43.59;101165.34;5056573;28;20220;-62
2022/08/14 05:17:09;;;;;;;7.07;6.47;;;25.40;58.60;;;28.32;43.84;101163.97;5056431;28;20532;-64
2022/08/14 05:19:39;;;;;;;10.67;6.17;;;25.40;58.50;;;28.36;43.29;101173.16;5056612;28;20197;-62
2022/08/14 05:22:26;;;;;;;7.97;7.27;;;25.50;58.40;;;28.36;43.40;101170.44;5056847;28;20206;-62
2022/08/14 05:24:53;;;;;;;6.77;6.27;;;25.60;58.40;;;28.38;43.15;101172.91;5076568;28;20538;-62
2022/08/14 05:27:21;;;;;;;7.90;6.80;;;25.60;58.10;;;28.40;43.18;101176.94;5076452;28;20247;-62
2022/08/14 05:29:54;;;;;;;8.33;7.57;;;25.60;58.10;;;28.42;43.35;101168.53;5076229;28;20197;-62
2022/08/14 05:32:25;;;;;;;6.97;6.37;;;25.70;58.10;;;28.44;43.36;101166.34;5076373;28;20697;-63
2022/08/14 05:34:56;;;;;;;6.93;6.40;;;25.70;58.00;;;28.47;43.30;101166.59;5077123;28;20181;-62
2022/08/14 05:37:26;;;;;;;7.57;6.53;;;25.70;57.90;;;28.51;43.20;101172.25;5076506;28;20257;-62
2022/08/14 05:39:55;;;;;;;6.97;6.27;;;25.80;57.90;;;28.53;43.12;101164.63;5076534;28;20642;-62
2022/08/14 05:42:22;;;;;;;7.27;6.67;;;25.80;57.80;;;28.56;43.23;101169.50;5076283;28;20210;-62
2022/08/14 05:45:05;;;;;;;7.17;6.47;;;25.80;57.90;;;28.59;43.33;101163.50;5076216;28;20252;-62
2022/08/14 05:47:40;;;;;;;7.43;6.67;;;25.90;57.80;;;28.58;43.21;101156.47;5075961;28;20213;-63
2022/08/14 05:50:13;;;;;;;7.10;6.40;;;25.90;57.60;;;28.57;43.08;101152.16;5076721;28;20193;-63
2022/08/14 05:52:47;;;;;;;6.60;6.10;;;25.90;57.50;;;28.61;42.95;101155.94;5092624;28;20642;-62
2022/08/14 05:55:16;;;;;;;6.07;5.67;;;25.90;57.40;;;28.64;43.07;101149.97;5077378;28;20231;-62
2022/08/14 05:57:53;;;;;;;7.13;6.63;;;26.00;57.40;;;28.67;42.98;101154.78;5077094;28;20217;-64
2022/08/14 06:00:24;;;;;;;7.63;7.03;;;26.00;57.40;;;28.70;42.79;101155.03;5077397;28;20189;-62
2022/08/14 06:02:56;;;;;;;6.63;6.13;;;26.00;57.20;;;28.73;42.76;101150.97;5077123;28;20292;-62
2022/08/14 06:05:28;;;;;;;6.40;6.00;;;26.10;57.10;;;28.76;42.59;101148.47;5067114;28;20709;-62
2022/08/14 06:07:57;;;;;;;6.60;6.10;;;26.10;57.80;;;28.81;42.49;101147.63;5057250;28;20224;-61
2022/08/14 06:10:26;;;;;;;9.07;6.47;;;26.20;57.00;;;28.85;42.37;101151.38;5057192;28;20197;-63
2022/08/14 06:12:56;;;;;;;6.40;5.80;;;26.20;56.90;;;28.88;42.50;101150.81;5057135;28;20236;-63
2022/08/14 06:15:25;;;;;;;6.40;5.90;;;26.20;56.80;;;28.91;42.13;101155.66;5057553;28;20308;-63
2022/08/14 06:17:58;;;;;;;6.40;5.90;;;26.30;56.60;;;28.93;42.37;101147.25;5057982;28;20255;-63
2022/08/14 06:20:30;;;;;;;6.40;5.90;;;26.30;56.50;;;28.99;42.28;101146.91;5056133;28;20709;-63
2022/08/14 06:23:00;;;;;;;6.27;5.87;;;26.30;56.60;;;29.05;42.20;101150.38;5055939;28;20213;-63
2022/08/14 06:25:30;;;;;;;6.70;6.10;;;26.30;56.40;;;29.07;41.85;101142.78;5055808;28;20265;-62
2022/08/14 06:27:58;;;;;;;6.20;5.60;;;26.40;56.20;;;29.12;42.09;101140.78;5056197;28;20701;-62
2022/08/14 06:30:33;;;;;;;6.20;5.63;;;26.40;56.20;;;29.20;41.69;101152.94;5055502;28;20657;-62
2022/08/14 06:33:14;;;;;;;7.67;5.70;;;26.50;56.20;;;29.27;41.61;101148.81;5055746;28;20210;-63
2022/08/14 06:35:44;;;;;;;6.53;6.03;;;26.50;56.10;;;29.37;41.53;101143.25;5055964;28;20716;-63
2022/08/14 06:38:15;;;;;;;6.70;6.20;;;26.60;56.10;;;29.44;41.57;101142.91;5055745;28;20202;-63
2022/08/14 06:40:45;;;;;;;6.47;5.80;;;26.70;55.90;;;29.45;41.17;101139.88;5055321;28;20182;-62
2022/08/14 06:43:14;;;;;;;6.30;5.80;;;26.70;55.40;;;29.44;41.01;101141.00;5055536;28;20206;-62
2022/08/14 06:45:46;;;;;;;6.43;5.90;;;26.80;55.20;;;29.47;41.06;101137.72;5055342;28;20194;-63
2022/08/14 06:48:23;;;;;;;6.63;6.13;;;26.80;55.10;;;29.55;41.10;101144.38;5055307;28;20283;-64
2022/08/14 06:50:53;;;;;;;6.20;5.70;;;26.90;55.20;;;29.64;41.08;101139.94;5054995;28;20193;-63
2022/08/14 06:53:21;;;;;;;5.73;5.23;;;26.90;55.10;;;29.73;40.66;101145.53;5054758;28;20560;-62
2022/08/14 06:55:56;;;;;;;5.40;5.00;;;27.00;55.10;;;29.81;40.75;101136.78;5055529;28;20583;-62
2022/08/14 06:58:29;;;;;;;5.67;5.17;;;27.10;55.00;;;29.85;40.90;101135.06;5054896;28;20186;-63
2022/08/14 07:06:52;;;;;;;5.60;5.07;;;27.20;54.60;;;29.71;41.11;101139.59;5035169;28;20189;-62
2022/08/14 07:09:27;;;;;;;6.07;5.63;;;27.20;54.80;;;29.73;41.05;101150.97;5049263;28;20218;-63
2022/08/14 07:12:14;;;;;;;6.67;6.03;;;27.30;54.80;;;29.73;41.05;101145.53;5035240;28;20237;-63
2022/08/14 07:15:03;;;;;;;5.70;5.20;;;27.20;54.60;;;29.72;41.30;101149.31;5034925;28;20605;-62
2022/08/14 07:17:31;;;;;;;6.47;5.97;;;27.30;54.60;;;29.72;41.51;101150.16;5034408;28;20193;-62
2022/08/14 07:20:04;;;;;;;6.17;5.63;;;27.30;54.70;;;29.81;40.84;101143.00;5035275;28;20670;-62
2022/08/14 07:22:35;;;;;;;5.70;4.93;;;27.30;54.70;;;29.95;40.82;101143.09;5034487;28;20219;-62
2022/08/14 07:25:22;;;;;;;5.33;4.93;;;27.40;54.60;;;30.05;40.37;101122.00;5054343;28;20265;-62
2022/08/14 07:28:00;;;;;;;6.63;6.03;;;27.50;54.60;;;30.18;40.75;101131.31;5054177;28;20213;-62
2022/08/14 07:30:27;;;;;;;7.23;5.90;;;27.50;54.70;;;30.29;40.23;101132.78;5054430;28;20197;-63
2022/08/14 07:33:02;;;;;;;6.00;5.60;;;27.60;54.60;;;30.41;40.72;101141.31;5054017;28;20213;-62
2022/08/14 07:35:30;;;;;;;6.00;5.50;;;27.70;54.70;;;30.54;39.93;101146.00;5054100;28;20465;-63
2022/08/14 07:38:17;;;;;;;5.40;5.00;;;27.80;55.20;;;30.64;39.54;101134.16;5054404;28;20182;-63
2022/08/14 07:40:47;;;;;;;9.00;5.57;;;27.90;54.10;;;30.78;40.04;101138.47;5054522;28;20178;-61
2022/08/14 07:43:21;;;;;;;6.60;6.00;;;28.00;54.00;;;30.99;39.70;101146.31;5054374;28;20582;-62
2022/08/14 07:45:50;;;;;;;6.73;6.23;;;28.10;53.80;;;31.44;38.72;101142.75;5054344;28;20321;-62
2022/08/14 07:48:21;;;;;;;6.37;5.87;;;28.30;53.80;;;32.13;37.89;101143.44;5054104;28;20202;-63
2022/08/14 07:50:52;;;;;;;6.37;5.70;;;28.60;53.20;;;32.89;37.01;101145.09;5054031;28;20654;-63
2022/08/14 07:53:32;;;;;;;6.13;5.63;;;29.00;52.90;;;33.69;35.13;101140.09;5053957;28;20186;-61
2022/08/14 07:56:09;;;;;;;6.23;5.83;;;29.60;51.00;;;34.46;33.99;101142.88;5053172;28;20205;-61
2022/08/14 07:58:57;;;;;;;6.00;5.60;;;30.10;50.10;;;35.43;32.61;101154.00;5053681;28;20663;-62
2022/08/14 08:01:27;;;;;;;8.53;5.43;;;30.70;48.40;;;36.12;31.42;101141.47;5052815;28;20216;-62
2022/08/14 08:04:02;;;;;;;7.80;6.97;;;31.30;47.70;;;36.39;30.33;101145.59;5052975;28;20744;-63
2022/08/14 08:06:30;;;;;;;6.68;5.85;;;31.80;45.20;;;36.47;30.21;101144.72;5071712;28;20204;-63
2022/08/14 08:09:01;;;;;;;6.13;5.72;;;32.10;44.30;;;36.85;29.82;101148.00;5064125;28;20212;-63
2022/08/14 08:11:32;;;;;;;6.18;5.72;;;32.50;43.50;;;37.21;28.81;101145.31;5052787;28;20213;-64
2022/08/14 08:14:06;;;;;;;5.78;5.32;;;32.80;42.60;;;37.81;28.50;101143.66;5053130;28;20188;-62
2022/08/14 08:16:37;;;;;;;7.50;6.90;;;33.20;42.20;;;38.20;27.73;101134.63;5053161;28;20174;-63
2022/08/14 08:19:09;;;;;;;6.43;5.88;;;33.60;40.80;;;38.16;27.73;101138.41;5053242;28;20186;-64
2022/08/14 08:21:40;;;;;;;6.07;5.68;;;33.80;40.30;;;38.21;27.52;101133.47;5053067;28;20221;-63
2022/08/14 08:24:12;;;;;;;5.35;5.05;;;34.10;39.60;;;38.71;27.02;101140.34;5068133;28;20274;-65
2022/08/14 08:26:46;;;;;;;6.00;5.40;;;34.30;39.40;;;39.36;26.32;101138.84;5073114;28;20196;-65
2022/08/14 08:29:20;;;;;;;6.43;5.82;;;34.60;38.40;;;39.92;25.45;101133.81;5073226;28;20208;-64
2022/08/14 08:31:58;;;;;;;6.72;6.20;;;35.00;37.40;;;40.43;24.94;101132.47;5073150;28;20219;-65
2022/08/14 08:34:44;;;;;;;6.85;6.45;;;35.40;37.10;;;41.02;23.86;101127.25;5073108;28;20185;-62
2022/08/14 08:37:13;;;;;;;6.55;5.63;;;35.80;36.10;;;41.64;23.82;101125.03;5072943;28;20189;-63
2022/08/14 08:39:47;;;;;;;6.55;6.13;;;36.20;35.60;;;42.03;22.55;101126.34;5073160;28;20537;-63
2022/08/14 08:42:30;;;;;;;6.80;6.30;;;36.70;34.40;;;42.27;22.54;101120.28;5072943;28;20209;-63
2022/08/14 08:45:09;;;;;;;5.70;5.30;;;37.00;33.30;;;42.49;22.44;101118.53;5074993;28;20665;-62
2022/08/14 08:47:39;;;;;;;6.57;6.07;;;37.30;32.90;;;42.66;22.06;101120.69;5057323;28;20200;-63
2022/08/14 08:50:23;;;;;;;6.85;6.30;;;37.50;32.20;;;43.18;21.68;101111.22;5057228;28;20217;-62
2022/08/14 08:53:00;;;;;;;5.82;5.43;;;37.80;31.60;;;43.84;21.33;101100.91;5057034;28;20244;-63
2022/08/14 08:55:34;;;;;;;6.38;5.88;;;38.20;32.10;;;44.50;20.12;101103.09;5057319;28;20190;-64
2022/08/14 08:58:05;;;;;;;6.68;5.85;;;38.50;30.20;;;44.83;19.74;101099.94;5056874;28;20267;-62
2022/08/14 09:00:47;;;;;;;6.25;5.75;;;38.90;30.10;;;45.12;19.10;101091.56;5056575;28;20272;-64
2022/08/14 09:03:20;;;;;;;6.25;5.65;;;39.20;29.90;;;45.14;19.27;101094.72;5072906;28;20221;-62
2022/08/14 09:05:54;;;;;;;7.32;6.05;;;39.40;28.90;;;44.77;19.36;101093.16;5070863;28;20193;-64
2022/08/14 09:08:25;;;;;;;6.60;6.00;;;39.50;28.40;;;44.61;19.35;101089.19;5076936;28;20215;-63
2022/08/14 09:11:03;;;;;;;6.72;6.22;;;39.50;28.40;;;44.64;19.36;101080.88;5077073;28;20189;-64
2022/08/14 09:13:50;;;;;;;6.38;5.88;;;39.60;28.60;;;44.84;19.17;101086.81;5076772;28;20212;-63
2022/08/14 09:16:21;;;;;;;6.78;6.28;;;39.60;28.30;;;44.70;19.42;101082.03;5076583;28;20272;-63
2022/08/14 09:18:51;;;;;;;6.97;6.25;;;39.60;28.10;;;44.77;19.69;101079.25;5077134;28;20189;-62
2022/08/14 09:21:21;;;;;;;6.32;5.93;;;39.70;28.50;;;44.73;18.61;101081.25;5076123;28;20224;-62
2022/08/14 09:23:53;;;;;;;6.10;5.70;;;39.60;28.00;;;44.53;19.22;101074.50;5076389;28;20209;-62
2022/08/14 09:26:44;;;;;;;6.80;6.20;;;39.60;28.00;;;44.60;18.81;101066.16;5076380;28;20189;-62
2022/08/14 09:29:18;;;;;;;7.05;6.55;;;39.60;28.10;;;44.72;18.86;101062.97;5076371;28;20688;-63
2022/08/14 09:31:54;;;;;;;6.93;6.43;;;39.50;28.00;;;44.86;18.71;101051.84;5075876;28;20208;-65
2022/08/14 09:34:47;;;;;;;6.60;6.20;;;39.60;28.20;;;45.02;18.55;101055.03;5076616;28;20196;-62
2022/08/14 09:37:46;;;;;;;6.82;6.32;;;39.70;27.70;;;45.08;18.80;101037.94;5076153;28;20692;-62
2022/08/14 09:40:34;;;;;;;6.68;6.22;;;39.90;27.90;;;45.46;18.17;101037.00;5076412;28;20276;-62
2022/08/14 09:43:29;;;;;;;6.25;5.85;;;40.00;27.50;;;46.11;17.70;101030.69;5076509;28;20204;-62
2022/08/14 09:45:57;;;;;;;7.20;6.60;;;40.30;27.90;;;46.66;17.53;101025.09;5067452;28;20247;-64
2022/08/14 09:48:29;;;;;;;6.97;6.28;;;40.50;27.10;;;47.04;16.81;101023.09;5056221;28;20271;-64
2022/08/14 09:51:00;;;;;;;6.72;6.10;;;40.80;27.10;;;47.07;16.69;101025.91;5055832;28;20272;-62
2022/08/14 09:53:39;;;;;;;7.78;7.18;;;41.00;26.40;;;46.73;17.38;101014.69;5055625;28;20205;-64
2022/08/14 09:56:26;;;;;;;6.53;6.03;;;41.00;26.40;;;46.72;17.09;101003.91;5055131;28;20201;-63
2022/08/14 09:59:15;;;;;;;7.85;7.25;;;41.20;26.50;;;46.70;16.91;101003.56;5055777;28;20580;-64
2022/08/14 10:01:43;;;;;;;7.05;6.35;;;41.30;26.10;;;46.81;17.02;101007.81;5054924;28;20217;-63
2022/08/14 10:04:24;;;;;;;10.40;6.80;;;41.30;26.00;;;46.77;16.88;100995.09;5056536;28;20189;-62
2022/08/14 10:07:04;;;;;;;8.02;7.30;;;41.30;25.60;;;46.48;16.61;101010.53;5075637;28;20200;-63
2022/08/14 10:09:32;;;;;;;7.30;6.78;;;41.10;25.50;;;46.42;16.99;100998.22;5056836;28;20214;-64
2022/08/14 10:12:05;;;;;;;6.80;6.30;;;41.10;25.60;;;46.41;16.78;100993.88;5054836;28;20220;-63
2022/08/14 10:14:46;;;;;;;6.72;6.32;;;41.10;25.90;;;46.77;17.09;101006.25;5069158;28;20192;-60
2022/08/14 10:17:25;;;;;;;6.35;5.95;;;41.10;26.00;;;47.03;16.17;100990.81;5055253;28;20185;-64
2022/08/14 10:19:54;;;;;;;7.15;6.55;;;41.20;25.60;;;47.10;16.69;100991.56;5055033;28;20201;-64
2022/08/14 10:22:29;;;;;;;7.07;6.57;;;41.30;25.80;;;47.43;16.39;100979.59;5054746;28;20279;-63
2022/08/14 10:25:17;;;;;;;6.57;6.13;;;41.50;25.90;;;47.82;16.10;100975.47;5075259;28;20193;-63
2022/08/14 10:27:56;;;;;;;7.00;6.47;;;41.70;25.70;;;48.29;15.80;100977.09;5074926;28;20224;-63
2022/08/14 10:30:37;;;;;;;7.13;6.45;;;41.80;25.50;;;48.82;15.33;100978.91;5074806;28;20669;-64
2022/08/14 10:33:04;;;;;;;6.57;6.13;;;42.10;25.40;;;49.07;14.86;100975.66;5090541;28;20522;-63
2022/08/14 10:35:42;;;;;;;7.10;6.68;;;42.30;25.10;;;49.42;15.11;100970.09;5089761;28;20191;-64
2022/08/14 10:38:30;;;;;;;6.25;5.85;;;42.60;25.50;;;49.45;14.55;100962.84;5075014;28;20197;-63
2022/08/14 10:41:11;;;;;;;6.72;6.28;;;42.80;24.50;;;48.94;14.94;100955.91;5074181;28;20196;-63
2022/08/14 10:43:41;;;;;;;6.80;6.20;;;43.00;24.30;;;48.16;15.55;100950.97;5089888;28;20677;-64
2022/08/14 10:46:15;;;;;;;6.88;6.28;;;42.90;24.20;;;46.98;15.88;100966.97;5064199;28;20260;-63
2022/08/14 10:49:03;;;;;;;7.50;6.88;;;42.60;23.80;;;45.51;17.43;100955.84;5054688;28;20213;-63
2022/08/14 10:51:33;;;;;;;7.18;6.53;;;42.00;24.20;;;44.35;18.16;100948.63;5054317;28;20210;-65
2022/08/14 10:54:09;;;;;;;6.88;6.28;;;41.50;24.70;;;43.46;19.42;100942.16;5054642;28;20196;-62
2022/08/14 10:56:57;;;;;;;6.70;6.13;;;40.90;25.40;;;42.68;20.08;100941.00;5054065;28;20658;-63
2022/08/14 10:59:25;;;;;;;7.43;6.82;;;40.30;25.90;;;41.98;20.63;100943.19;5052828;28;20205;-62
2022/08/14 11:02:15;;;;;;;7.15;6.65;;;39.70;26.10;;;40.98;21.20;100932.94;5053447;28;20209;-61
2022/08/14 11:05:06;;;;;;;6.68;6.18;;;39.10;26.80;;;40.37;22.21;100924.09;5053905;28;20566;-62